DELGD EDDF-ELLX
Flight info
| Callsign | DELGD |
|---|---|
| Flight time | 1h 4m |
| Altitude | 8000 |
| Route | SOBRA2L/18 SOBRA Y180 BITBU Z110 BETEX |
| Aircraft | DA40/L-SBDGRY/S |
Departure
| Time | 2026-05-07 08:43 |
|---|---|
| Airport | Frankfurt Main Airport (EDDF) |
Arrival
| Time | 2026-05-07 09:47 |
|---|---|
| Airport | Luxembourg-Findel International Airport (ELLX) |
| Time | Latitude | Longitude | Altitude | Speed | Heading |
|---|---|---|---|---|---|
| 2026-05-07 08:29 | 50.03116 | 8.56361 | 337 ft | 0 kts | 64° |
| 2026-05-07 08:37 | 50.03124 | 8.56357 | 338 ft | 4 kts | 269° |
| 2026-05-07 08:38 | 50.03126 | 8.56280 | 339 ft | 9 kts | 287° |
| 2026-05-07 08:38 | 50.03158 | 8.56192 | 338 ft | 0 kts | 321° |
| 2026-05-07 08:38 | 50.03179 | 8.56135 | 339 ft | 7 kts | 291° |
| 2026-05-07 08:38 | 50.03152 | 8.56101 | 338 ft | 9 kts | 205° |
| 2026-05-07 08:39 | 50.03090 | 8.55965 | 339 ft | 21 kts | 255° |
| 2026-05-07 08:39 | 50.03026 | 8.55691 | 338 ft | 34 kts | 252° |
| 2026-05-07 08:39 | 50.02955 | 8.55389 | 338 ft | 23 kts | 244° |
| 2026-05-07 08:39 | 50.02894 | 8.55164 | 335 ft | 26 kts | 246° |
| 2026-05-07 08:40 | 50.02817 | 8.54877 | 339 ft | 31 kts | 246° |
| 2026-05-07 08:40 | 50.02751 | 8.54595 | 338 ft | 23 kts | 247° |
| 2026-05-07 08:40 | 50.02692 | 8.54345 | 339 ft | 26 kts | 253° |
| 2026-05-07 08:40 | 50.02635 | 8.54065 | 338 ft | 27 kts | 249° |
| 2026-05-07 08:41 | 50.02569 | 8.53787 | 337 ft | 27 kts | 248° |
| 2026-05-07 08:41 | 50.02504 | 8.53509 | 339 ft | 28 kts | 250° |
| 2026-05-07 08:41 | 50.02434 | 8.53225 | 336 ft | 28 kts | 250° |
| 2026-05-07 08:41 | 50.02363 | 8.52928 | 338 ft | 29 kts | 248° |
| 2026-05-07 08:42 | 50.02287 | 8.52648 | 338 ft | 25 kts | 225° |
| 2026-05-07 08:42 | 50.02038 | 8.52607 | 339 ft | 58 kts | 179° |
| 2026-05-07 08:42 | 50.01530 | 8.52629 | 447 ft | 76 kts | 184° |
| 2026-05-07 08:42 | 50.01019 | 8.52646 | 702 ft | 73 kts | 183° |
| 2026-05-07 08:43 | 50.00496 | 8.52676 | 957 ft | 74 kts | 181° |
| 2026-05-07 08:43 | 49.99980 | 8.52704 | 1213 ft | 76 kts | 182° |
| 2026-05-07 08:43 | 49.99443 | 8.52737 | 1490 ft | 77 kts | 181° |
| 2026-05-07 08:43 | 49.98908 | 8.52771 | 1752 ft | 78 kts | 182° |
| 2026-05-07 08:44 | 49.98363 | 8.52806 | 1983 ft | 79 kts | 182° |
| 2026-05-07 08:44 | 49.97814 | 8.52841 | 2224 ft | 79 kts | 181° |
| 2026-05-07 08:44 | 49.97256 | 8.52876 | 2478 ft | 81 kts | 181° |
| 2026-05-07 08:44 | 49.96699 | 8.52911 | 2736 ft | 81 kts | 180° |
| 2026-05-07 08:45 | 49.96133 | 8.52947 | 2981 ft | 82 kts | 180° |
| 2026-05-07 08:45 | 49.95570 | 8.52984 | 3204 ft | 81 kts | 179° |
| 2026-05-07 08:45 | 49.95004 | 8.53021 | 3416 ft | 81 kts | 180° |
| 2026-05-07 08:45 | 49.94438 | 8.53057 | 3649 ft | 82 kts | 180° |
| 2026-05-07 08:46 | 49.93870 | 8.53093 | 3884 ft | 82 kts | 180° |
| 2026-05-07 08:46 | 49.93299 | 8.53131 | 4108 ft | 82 kts | 178° |
| 2026-05-07 08:46 | 49.92725 | 8.53167 | 4332 ft | 83 kts | 178° |
| 2026-05-07 08:46 | 49.92146 | 8.53205 | 4574 ft | 83 kts | 178° |
| 2026-05-07 08:47 | 49.91568 | 8.53243 | 4797 ft | 83 kts | 179° |
| 2026-05-07 08:47 | 49.91018 | 8.53067 | 5017 ft | 79 kts | 221° |
| 2026-05-07 08:47 | 49.90743 | 8.52393 | 5235 ft | 73 kts | 264° |
| 2026-05-07 08:47 | 49.90698 | 8.51621 | 5451 ft | 72 kts | 272° |
| 2026-05-07 08:48 | 49.90662 | 8.50847 | 5667 ft | 72 kts | 271° |
| 2026-05-07 08:48 | 49.90623 | 8.50073 | 5897 ft | 72 kts | 271° |
| 2026-05-07 08:48 | 49.90582 | 8.49299 | 6129 ft | 73 kts | 272° |
| 2026-05-07 08:48 | 49.90541 | 8.48529 | 6353 ft | 72 kts | 272° |
| 2026-05-07 08:49 | 49.90498 | 8.47754 | 6564 ft | 72 kts | 272° |
| 2026-05-07 08:49 | 49.90453 | 8.46983 | 6785 ft | 71 kts | 271° |
| 2026-05-07 08:49 | 49.90408 | 8.46220 | 7032 ft | 71 kts | 272° |
| 2026-05-07 08:49 | 49.90364 | 8.45460 | 7259 ft | 71 kts | 270° |
| 2026-05-07 08:50 | 49.90319 | 8.44697 | 7483 ft | 71 kts | 270° |
| 2026-05-07 08:50 | 49.90273 | 8.43934 | 7723 ft | 71 kts | 270° |
| 2026-05-07 08:50 | 49.90227 | 8.43175 | 7952 ft | 71 kts | 270° |
| 2026-05-07 08:50 | 49.90177 | 8.42313 | 8019 ft | 94 kts | 269° |
| 2026-05-07 08:51 | 49.90112 | 8.41176 | 8012 ft | 115 kts | 269° |
| 2026-05-07 08:51 | 49.90039 | 8.39901 | 8005 ft | 122 kts | 269° |
| 2026-05-07 08:51 | 49.89961 | 8.38577 | 8005 ft | 125 kts | 268° |
| 2026-05-07 08:51 | 49.89879 | 8.37227 | 8007 ft | 126 kts | 269° |
| 2026-05-07 08:52 | 49.89797 | 8.35885 | 8010 ft | 127 kts | 268° |
| 2026-05-07 08:52 | 49.89713 | 8.34522 | 8010 ft | 127 kts | 268° |
| 2026-05-07 08:52 | 49.89630 | 8.33163 | 8011 ft | 127 kts | 268° |
| 2026-05-07 08:52 | 49.89546 | 8.31791 | 8000 ft | 127 kts | 268° |
| 2026-05-07 08:53 | 49.89462 | 8.30428 | 8000 ft | 127 kts | 268° |
| 2026-05-07 08:53 | 49.89378 | 8.29071 | 7999 ft | 126 kts | 268° |
| 2026-05-07 08:53 | 49.89294 | 8.27717 | 8000 ft | 126 kts | 268° |
| 2026-05-07 08:53 | 49.89210 | 8.26367 | 7999 ft | 126 kts | 268° |
| 2026-05-07 08:54 | 49.89127 | 8.25019 | 8001 ft | 126 kts | 268° |
| 2026-05-07 08:54 | 49.89043 | 8.23669 | 8001 ft | 126 kts | 268° |
| 2026-05-07 08:54 | 49.88978 | 8.22322 | 7996 ft | 124 kts | 276° |
| 2026-05-07 08:54 | 49.89097 | 8.21004 | 8006 ft | 124 kts | 282° |
| 2026-05-07 08:55 | 49.89231 | 8.19697 | 8004 ft | 125 kts | 281° |
| 2026-05-07 08:55 | 49.89353 | 8.18359 | 8007 ft | 126 kts | 281° |
| 2026-05-07 08:55 | 49.89471 | 8.17009 | 8006 ft | 127 kts | 281° |
| 2026-05-07 08:55 | 49.89586 | 8.15652 | 8007 ft | 127 kts | 281° |
| 2026-05-07 08:56 | 49.89699 | 8.14294 | 8003 ft | 126 kts | 280° |
| 2026-05-07 08:56 | 49.89811 | 8.12945 | 8008 ft | 126 kts | 280° |
| 2026-05-07 08:56 | 49.89924 | 8.11595 | 8007 ft | 126 kts | 281° |
| 2026-05-07 08:56 | 49.90038 | 8.10222 | 8007 ft | 127 kts | 281° |
| 2026-05-07 08:57 | 49.90150 | 8.08867 | 8003 ft | 127 kts | 281° |
| 2026-05-07 08:57 | 49.90261 | 8.07532 | 8007 ft | 127 kts | 281° |
| 2026-05-07 08:57 | 49.90373 | 8.06176 | 8004 ft | 127 kts | 281° |
| 2026-05-07 08:57 | 49.90485 | 8.04822 | 8005 ft | 126 kts | 281° |
| 2026-05-07 08:58 | 49.90595 | 8.03473 | 8009 ft | 127 kts | 281° |
| 2026-05-07 08:58 | 49.90707 | 8.02118 | 8007 ft | 127 kts | 281° |
| 2026-05-07 08:58 | 49.90817 | 8.00765 | 8007 ft | 126 kts | 281° |
| 2026-05-07 08:58 | 49.90928 | 7.99409 | 8007 ft | 127 kts | 281° |
| 2026-05-07 08:59 | 49.91040 | 7.98051 | 8006 ft | 127 kts | 281° |
| 2026-05-07 08:59 | 49.91151 | 7.96691 | 8006 ft | 127 kts | 281° |
| 2026-05-07 08:59 | 49.91261 | 7.95327 | 8005 ft | 127 kts | 280° |
| 2026-05-07 08:59 | 49.91371 | 7.93980 | 8006 ft | 128 kts | 280° |
| 2026-05-07 09:00 | 49.91484 | 7.92596 | 8003 ft | 128 kts | 280° |
| 2026-05-07 09:00 | 49.91596 | 7.91228 | 8009 ft | 128 kts | 281° |
| 2026-05-07 09:00 | 49.91707 | 7.89863 | 8008 ft | 127 kts | 281° |
| 2026-05-07 09:00 | 49.91817 | 7.88498 | 8010 ft | 128 kts | 280° |
| 2026-05-07 09:01 | 49.91927 | 7.87126 | 8013 ft | 128 kts | 280° |
| 2026-05-07 09:01 | 49.92039 | 7.85755 | 8013 ft | 128 kts | 280° |
| 2026-05-07 09:01 | 49.92150 | 7.84382 | 8014 ft | 128 kts | 280° |
| 2026-05-07 09:01 | 49.92259 | 7.83029 | 8007 ft | 128 kts | 281° |
| 2026-05-07 09:02 | 49.92370 | 7.81643 | 8008 ft | 128 kts | 281° |
| 2026-05-07 09:02 | 49.92478 | 7.80287 | 8004 ft | 128 kts | 280° |
| 2026-05-07 09:02 | 49.92588 | 7.78913 | 8008 ft | 128 kts | 280° |
| 2026-05-07 09:02 | 49.92698 | 7.77540 | 8009 ft | 128 kts | 281° |
| 2026-05-07 09:03 | 49.92808 | 7.76162 | 8006 ft | 129 kts | 280° |
| 2026-05-07 09:03 | 49.92918 | 7.74783 | 8006 ft | 129 kts | 280° |
| 2026-05-07 09:03 | 49.93030 | 7.73398 | 8003 ft | 130 kts | 280° |
| 2026-05-07 09:03 | 49.93141 | 7.72003 | 8001 ft | 130 kts | 280° |
| 2026-05-07 09:04 | 49.93145 | 7.71956 | 8003 ft | 131 kts | 280° |
| 2026-05-07 09:04 | 49.93256 | 7.70547 | 7999 ft | 131 kts | 279° |
| 2026-05-07 09:04 | 49.93365 | 7.69135 | 8003 ft | 132 kts | 279° |
| 2026-05-07 09:04 | 49.93477 | 7.67725 | 8002 ft | 132 kts | 279° |
| 2026-05-07 09:05 | 49.93588 | 7.66321 | 8001 ft | 131 kts | 279° |
| 2026-05-07 09:05 | 49.93698 | 7.64923 | 8002 ft | 130 kts | 279° |
| 2026-05-07 09:05 | 49.93809 | 7.63523 | 8002 ft | 131 kts | 279° |
| 2026-05-07 09:05 | 49.93919 | 7.62125 | 7998 ft | 131 kts | 279° |
| 2026-05-07 09:06 | 49.94027 | 7.60745 | 7999 ft | 130 kts | 279° |
| 2026-05-07 09:06 | 49.94137 | 7.59352 | 8003 ft | 131 kts | 279° |
| 2026-05-07 09:06 | 49.94247 | 7.57943 | 8001 ft | 132 kts | 279° |
| 2026-05-07 09:06 | 49.94358 | 7.56532 | 8000 ft | 132 kts | 279° |
| 2026-05-07 09:07 | 49.94468 | 7.55122 | 8000 ft | 132 kts | 278° |
| 2026-05-07 09:07 | 49.94577 | 7.53716 | 7999 ft | 131 kts | 279° |
| 2026-05-07 09:07 | 49.94687 | 7.52309 | 8001 ft | 131 kts | 278° |
| 2026-05-07 09:07 | 49.94796 | 7.50901 | 7996 ft | 131 kts | 279° |
| 2026-05-07 09:08 | 49.94905 | 7.49492 | 8012 ft | 131 kts | 279° |
| 2026-05-07 09:08 | 49.95015 | 7.48081 | 8008 ft | 132 kts | 278° |
| 2026-05-07 09:08 | 49.95124 | 7.46669 | 8010 ft | 131 kts | 278° |
| 2026-05-07 09:08 | 49.95232 | 7.45263 | 8011 ft | 131 kts | 278° |
| 2026-05-07 09:09 | 49.95339 | 7.43877 | 8012 ft | 131 kts | 279° |
| 2026-05-07 09:09 | 49.95447 | 7.42476 | 8012 ft | 131 kts | 279° |
| 2026-05-07 09:09 | 49.95554 | 7.41078 | 8013 ft | 130 kts | 278° |
| 2026-05-07 09:09 | 49.95661 | 7.39679 | 8011 ft | 131 kts | 279° |
| 2026-05-07 09:10 | 49.95769 | 7.38279 | 8012 ft | 130 kts | 278° |
| 2026-05-07 09:10 | 49.95876 | 7.36879 | 8010 ft | 130 kts | 278° |
| 2026-05-07 09:10 | 49.95983 | 7.35480 | 8014 ft | 131 kts | 279° |
| 2026-05-07 09:10 | 49.96089 | 7.34079 | 8012 ft | 131 kts | 278° |
| 2026-05-07 09:11 | 49.96196 | 7.32676 | 8014 ft | 131 kts | 278° |
| 2026-05-07 09:11 | 49.96303 | 7.31266 | 8014 ft | 132 kts | 279° |
| 2026-05-07 09:11 | 49.96411 | 7.29854 | 8012 ft | 132 kts | 278° |
| 2026-05-07 09:11 | 49.96518 | 7.28439 | 8016 ft | 132 kts | 278° |
| 2026-05-07 09:12 | 49.96624 | 7.27027 | 8008 ft | 132 kts | 278° |
| 2026-05-07 09:12 | 49.96730 | 7.25624 | 8016 ft | 132 kts | 278° |
| 2026-05-07 09:12 | 49.96839 | 7.24182 | 8016 ft | 132 kts | 278° |
| 2026-05-07 09:12 | 49.96943 | 7.22785 | 8013 ft | 132 kts | 278° |
| 2026-05-07 09:13 | 49.97046 | 7.21367 | 8020 ft | 132 kts | 278° |
| 2026-05-07 09:13 | 49.97156 | 7.19931 | 8020 ft | 132 kts | 278° |
| 2026-05-07 09:13 | 49.97264 | 7.18520 | 8018 ft | 131 kts | 278° |
| 2026-05-07 09:13 | 49.97367 | 7.17138 | 8018 ft | 130 kts | 278° |
| 2026-05-07 09:14 | 49.97470 | 7.15745 | 8019 ft | 130 kts | 278° |
| 2026-05-07 09:14 | 49.97575 | 7.14350 | 8016 ft | 130 kts | 278° |
| 2026-05-07 09:14 | 49.97678 | 7.12952 | 8017 ft | 130 kts | 278° |
| 2026-05-07 09:14 | 49.97782 | 7.11560 | 8019 ft | 130 kts | 278° |
| 2026-05-07 09:15 | 49.97885 | 7.10164 | 8014 ft | 130 kts | 278° |
| 2026-05-07 09:15 | 49.97988 | 7.08773 | 8013 ft | 129 kts | 278° |
| 2026-05-07 09:15 | 49.98090 | 7.07386 | 8015 ft | 129 kts | 278° |
| 2026-05-07 09:15 | 49.98191 | 7.06000 | 8011 ft | 129 kts | 278° |
| 2026-05-07 09:16 | 49.98292 | 7.04621 | 8009 ft | 128 kts | 278° |
| 2026-05-07 09:16 | 49.98393 | 7.03244 | 8009 ft | 128 kts | 278° |
| 2026-05-07 09:16 | 49.98494 | 7.01869 | 8013 ft | 129 kts | 278° |
| 2026-05-07 09:16 | 49.98593 | 7.00498 | 8013 ft | 130 kts | 278° |
| 2026-05-07 09:17 | 49.98691 | 6.99151 | 8012 ft | 130 kts | 278° |
| 2026-05-07 09:17 | 49.98787 | 6.97849 | 8001 ft | 131 kts | 278° |
| 2026-05-07 09:17 | 49.98888 | 6.96461 | 8006 ft | 132 kts | 278° |
| 2026-05-07 09:17 | 49.98992 | 6.95042 | 8003 ft | 132 kts | 278° |
| 2026-05-07 09:18 | 49.99094 | 6.93627 | 8005 ft | 132 kts | 278° |
| 2026-05-07 09:18 | 49.99194 | 6.92220 | 8005 ft | 131 kts | 278° |
| 2026-05-07 09:18 | 49.99296 | 6.90823 | 8006 ft | 130 kts | 277° |
| 2026-05-07 09:18 | 49.99294 | 6.89409 | 8005 ft | 131 kts | 269° |
| 2026-05-07 09:19 | 49.99253 | 6.87999 | 8006 ft | 130 kts | 269° |
| 2026-05-07 09:19 | 49.99219 | 6.86587 | 8006 ft | 131 kts | 270° |
| 2026-05-07 09:19 | 49.99099 | 6.85293 | 7991 ft | 133 kts | 247° |
| 2026-05-07 09:19 | 49.98635 | 6.84070 | 8023 ft | 130 kts | 240° |
| 2026-05-07 09:20 | 49.98151 | 6.82877 | 8005 ft | 130 kts | 240° |
| 2026-05-07 09:20 | 49.97660 | 6.81690 | 8004 ft | 131 kts | 239° |
| 2026-05-07 09:20 | 49.97166 | 6.80498 | 8001 ft | 131 kts | 240° |
| 2026-05-07 09:20 | 49.96679 | 6.79306 | 7999 ft | 131 kts | 241° |
| 2026-05-07 09:21 | 49.96363 | 6.78509 | 8004 ft | 131 kts | 240° |
| 2026-05-07 09:21 | 49.95879 | 6.77315 | 8000 ft | 131 kts | 240° |
| 2026-05-07 09:21 | 49.95239 | 6.75744 | 7996 ft | 129 kts | 240° |
| 2026-05-07 09:22 | 49.93902 | 6.72497 | 8013 ft | 127 kts | 240° |
| 2026-05-07 09:22 | 49.93430 | 6.71338 | 8013 ft | 127 kts | 240° |
| 2026-05-07 09:22 | 49.92954 | 6.70175 | 8014 ft | 128 kts | 240° |
| 2026-05-07 09:23 | 49.92475 | 6.69003 | 8014 ft | 128 kts | 240° |
| 2026-05-07 09:23 | 49.91996 | 6.67832 | 7998 ft | 129 kts | 240° |
| 2026-05-07 09:23 | 49.91518 | 6.66664 | 7996 ft | 128 kts | 240° |
| 2026-05-07 09:23 | 49.91040 | 6.65498 | 7993 ft | 128 kts | 240° |
| 2026-05-07 09:24 | 49.90578 | 6.64333 | 7986 ft | 126 kts | 240° |
| 2026-05-07 09:24 | 49.90123 | 6.63184 | 7989 ft | 124 kts | 241° |
| 2026-05-07 09:24 | 49.89673 | 6.62046 | 7987 ft | 123 kts | 241° |
| 2026-05-07 09:24 | 49.89230 | 6.60928 | 7987 ft | 123 kts | 241° |
| 2026-05-07 09:25 | 49.88783 | 6.59802 | 7985 ft | 121 kts | 240° |
| 2026-05-07 09:25 | 49.88341 | 6.58693 | 7995 ft | 121 kts | 240° |
| 2026-05-07 09:25 | 49.87899 | 6.57581 | 7995 ft | 121 kts | 240° |
| 2026-05-07 09:25 | 49.87459 | 6.56475 | 7987 ft | 120 kts | 240° |
| 2026-05-07 09:26 | 49.87021 | 6.55371 | 7998 ft | 120 kts | 240° |
| 2026-05-07 09:26 | 49.86582 | 6.54267 | 8003 ft | 121 kts | 240° |
| 2026-05-07 09:26 | 49.86141 | 6.53159 | 8008 ft | 122 kts | 240° |
| 2026-05-07 09:26 | 49.85698 | 6.52045 | 8010 ft | 122 kts | 240° |
| 2026-05-07 09:27 | 49.85254 | 6.50929 | 8010 ft | 121 kts | 240° |
| 2026-05-07 09:27 | 49.84816 | 6.49830 | 8005 ft | 121 kts | 240° |
| 2026-05-07 09:27 | 49.83936 | 6.47626 | 8009 ft | 119 kts | 241° |
| 2026-05-07 09:28 | 49.83500 | 6.46537 | 8011 ft | 119 kts | 241° |
| 2026-05-07 09:28 | 49.83066 | 6.45449 | 8012 ft | 119 kts | 240° |
| 2026-05-07 09:28 | 49.82630 | 6.44356 | 8013 ft | 119 kts | 240° |
| 2026-05-07 09:28 | 49.82194 | 6.43266 | 8013 ft | 119 kts | 240° |
| 2026-05-07 09:29 | 49.81760 | 6.42181 | 8012 ft | 119 kts | 240° |
| 2026-05-07 09:29 | 49.81326 | 6.41094 | 8014 ft | 119 kts | 241° |
| 2026-05-07 09:29 | 49.80897 | 6.40021 | 8019 ft | 119 kts | 240° |
| 2026-05-07 09:29 | 49.80460 | 6.38928 | 8016 ft | 120 kts | 240° |
| 2026-05-07 09:30 | 49.80021 | 6.37832 | 8015 ft | 120 kts | 241° |
| 2026-05-07 09:30 | 49.79584 | 6.36741 | 8020 ft | 119 kts | 241° |
| 2026-05-07 09:30 | 49.79146 | 6.35649 | 8015 ft | 119 kts | 241° |
| 2026-05-07 09:30 | 49.78710 | 6.34561 | 8013 ft | 118 kts | 241° |
| 2026-05-07 09:31 | 49.78277 | 6.33482 | 8014 ft | 117 kts | 240° |
| 2026-05-07 09:31 | 49.77851 | 6.32420 | 8034 ft | 115 kts | 240° |
| 2026-05-07 09:31 | 49.77430 | 6.31372 | 8031 ft | 114 kts | 240° |
| 2026-05-07 09:31 | 49.77015 | 6.30339 | 8032 ft | 113 kts | 239° |
| 2026-05-07 09:32 | 49.76608 | 6.29328 | 8050 ft | 111 kts | 239° |
| 2026-05-07 09:32 | 49.76193 | 6.28296 | 8046 ft | 116 kts | 240° |
| 2026-05-07 09:32 | 49.75764 | 6.27220 | 8046 ft | 119 kts | 239° |
| 2026-05-07 09:32 | 49.75326 | 6.26129 | 8046 ft | 120 kts | 240° |
| 2026-05-07 09:33 | 49.74886 | 6.25032 | 8050 ft | 120 kts | 239° |
| 2026-05-07 09:33 | 49.74443 | 6.23930 | 8051 ft | 121 kts | 240° |
| 2026-05-07 09:33 | 49.73999 | 6.22825 | 8050 ft | 121 kts | 240° |
| 2026-05-07 09:33 | 49.73555 | 6.21723 | 8052 ft | 121 kts | 240° |
| 2026-05-07 09:34 | 49.73110 | 6.20615 | 8050 ft | 122 kts | 240° |
| 2026-05-07 09:34 | 49.72668 | 6.19519 | 8049 ft | 122 kts | 239° |
| 2026-05-07 09:34 | 49.72219 | 6.18408 | 8049 ft | 122 kts | 239° |
| 2026-05-07 09:34 | 49.71771 | 6.17298 | 8050 ft | 122 kts | 239° |
| 2026-05-07 09:35 | 49.71321 | 6.16182 | 8050 ft | 122 kts | 239° |
| 2026-05-07 09:35 | 49.70870 | 6.15064 | 8025 ft | 124 kts | 239° |
| 2026-05-07 09:35 | 49.70408 | 6.13921 | 7947 ft | 130 kts | 240° |
| 2026-05-07 09:35 | 49.69910 | 6.12683 | 7743 ft | 141 kts | 240° |
| 2026-05-07 09:36 | 49.69377 | 6.11363 | 7525 ft | 148 kts | 239° |
| 2026-05-07 09:36 | 49.68818 | 6.09986 | 7302 ft | 153 kts | 239° |
| 2026-05-07 09:36 | 49.68257 | 6.08600 | 7093 ft | 155 kts | 239° |
| 2026-05-07 09:36 | 49.67684 | 6.07185 | 6887 ft | 156 kts | 239° |
| 2026-05-07 09:37 | 49.67106 | 6.05761 | 6674 ft | 157 kts | 239° |
| 2026-05-07 09:37 | 49.66525 | 6.04327 | 6464 ft | 158 kts | 239° |
| 2026-05-07 09:37 | 49.65944 | 6.02894 | 6251 ft | 157 kts | 239° |
| 2026-05-07 09:37 | 49.65363 | 6.01464 | 6040 ft | 157 kts | 239° |
| 2026-05-07 09:38 | 49.64784 | 6.00036 | 5832 ft | 157 kts | 239° |
| 2026-05-07 09:38 | 49.64207 | 5.98617 | 5628 ft | 155 kts | 239° |
| 2026-05-07 09:38 | 49.63657 | 5.97252 | 5453 ft | 144 kts | 239° |
| 2026-05-07 09:38 | 49.63139 | 5.95972 | 5291 ft | 138 kts | 239° |
| 2026-05-07 09:39 | 49.62636 | 5.94737 | 5128 ft | 134 kts | 239° |
| 2026-05-07 09:39 | 49.62153 | 5.93551 | 4967 ft | 131 kts | 239° |
| 2026-05-07 09:39 | 49.61670 | 5.92365 | 4798 ft | 130 kts | 239° |
| 2026-05-07 09:39 | 49.61128 | 5.91265 | 4622 ft | 129 kts | 220° |
| 2026-05-07 09:40 | 49.60318 | 5.90727 | 4453 ft | 128 kts | 186° |
| 2026-05-07 09:40 | 49.59460 | 5.90956 | 4285 ft | 126 kts | 154° |
| 2026-05-07 09:40 | 49.58716 | 5.91660 | 4124 ft | 125 kts | 147° |
| 2026-05-07 09:40 | 49.57985 | 5.92392 | 3959 ft | 125 kts | 147° |
| 2026-05-07 09:41 | 49.57260 | 5.93116 | 3797 ft | 123 kts | 147° |
| 2026-05-07 09:41 | 49.56542 | 5.93830 | 3633 ft | 122 kts | 147° |
| 2026-05-07 09:41 | 49.55830 | 5.94537 | 3472 ft | 121 kts | 147° |
| 2026-05-07 09:41 | 49.55120 | 5.95241 | 3308 ft | 121 kts | 147° |
| 2026-05-07 09:42 | 49.54430 | 5.95978 | 3142 ft | 121 kts | 136° |
| 2026-05-07 09:42 | 49.54041 | 5.97089 | 3016 ft | 116 kts | 99° |
| 2026-05-07 09:42 | 49.54130 | 5.98262 | 3012 ft | 111 kts | 65° |
| 2026-05-07 09:42 | 49.54503 | 5.99295 | 3017 ft | 111 kts | 60° |
| 2026-05-07 09:43 | 49.54891 | 6.00340 | 3022 ft | 115 kts | 59° |
| 2026-05-07 09:43 | 49.55298 | 6.01435 | 3023 ft | 120 kts | 59° |
| 2026-05-07 09:43 | 49.55721 | 6.02570 | 3018 ft | 124 kts | 59° |
| 2026-05-07 09:43 | 49.56153 | 6.03731 | 3026 ft | 126 kts | 59° |
| 2026-05-07 09:44 | 49.56589 | 6.04902 | 3025 ft | 127 kts | 59° |
| 2026-05-07 09:44 | 49.57030 | 6.06085 | 3026 ft | 128 kts | 59° |
| 2026-05-07 09:44 | 49.57470 | 6.07264 | 2960 ft | 132 kts | 59° |
| 2026-05-07 09:44 | 49.57943 | 6.08537 | 2774 ft | 140 kts | 59° |
| 2026-05-07 09:45 | 49.58422 | 6.09829 | 2583 ft | 134 kts | 59° |
| 2026-05-07 09:45 | 49.58874 | 6.11042 | 2402 ft | 127 kts | 59° |
| 2026-05-07 09:45 | 49.59306 | 6.12202 | 2226 ft | 124 kts | 59° |
| 2026-05-07 09:45 | 49.59732 | 6.13347 | 2050 ft | 122 kts | 59° |
| 2026-05-07 09:46 | 49.60150 | 6.14468 | 1880 ft | 115 kts | 59° |
| 2026-05-07 09:46 | 49.60517 | 6.15453 | 1724 ft | 99 kts | 58° |
| 2026-05-07 09:46 | 49.60837 | 6.16311 | 1605 ft | 89 kts | 56° |
| 2026-05-07 09:46 | 49.61138 | 6.17113 | 1483 ft | 83 kts | 57° |
| 2026-05-07 09:47 | 49.61415 | 6.17852 | 1368 ft | 79 kts | 53° |
| 2026-05-07 09:47 | 49.61696 | 6.18592 | 1268 ft | 80 kts | 54° |
| 2026-05-07 09:47 | 49.61935 | 6.19256 | 1196 ft | 55 kts | 54° |
| 2026-05-07 09:47 | 49.62089 | 6.19612 | 1200 ft | 23 kts | 12° |
| 2026-05-07 09:48 | 49.62170 | 6.19569 | 1194 ft | 0 kts | 324° |
| 2026-05-07 09:48 | 49.62190 | 6.19555 | 1193 ft | 4 kts | 356° |
| 2026-05-07 09:48 | 49.62240 | 6.19592 | 1191 ft | 11 kts | 55° |
| 2026-05-07 09:49 | 49.62290 | 6.19721 | 1191 ft | 17 kts | 63° |
| 2026-05-07 09:49 | 49.62359 | 6.19797 | 1191 ft | 12 kts | 326° |
| 2026-05-07 09:49 | 49.62417 | 6.19731 | 1189 ft | 8 kts | 302° |
| 2026-05-07 09:49 | 49.62408 | 6.19673 | 1189 ft | 4 kts | 233° |
| 2026-05-07 09:50 | 49.62408 | 6.19672 | 1189 ft | 0 kts | 234° |